Time;durP1;ratioP1;P1;durP2;ratioP2;P2;SDS_P1;SDS_P2;PMS_P1;PMS_P2;Temp;Humidity;BMP_temperature;BMP_pressure;BME280_temperature;BME280_humidity;BME280_pressure;Samples;Min_cycle;Max_cycle;Signal;HPM_P1;HPM_P2
2024/03/01 00:01:27;;;;;;;;;;;;;;;15.35;49.30;101207.69;4959051;29;1041;-48
2024/03/01 00:03:53;;;;;;;;;;;;;;;16.38;47.20;101207.50;4958349;29;1282;-45
2024/03/01 00:06:18;;;;;;;;;;;;;;;17.39;44.60;101188.50;4958553;29;891;-48
2024/03/01 00:08:44;;;;;;;;;;;;;;;16.45;46.44;101176.09;4959134;29;1151;-48
2024/03/01 00:11:09;;;;;;;;;;;;;;;15.91;47.81;101180.38;4959115;29;1132;-45
2024/03/01 00:13:35;;;;;;;;;;;;;;;15.64;48.68;101194.44;4959104;29;1137;-47
2024/03/01 00:16:00;;;;;;;;;;;;;;;15.40;49.19;101202.94;4959046;29;1185;-49
2024/03/01 00:18:26;;;;;;;;;;;;;;;15.51;49.12;101187.25;4958396;29;1914;-46
2024/03/01 00:20:52;;;;;;;;;;;;;;;17.00;45.73;101168.03;4958561;29;1053;-48
2024/03/01 00:23:17;;;;;;;;;;;;;;;16.89;45.40;101167.91;4958709;29;1027;-47
2024/03/01 00:25:46;;;;;;;;;;;;;;;16.08;47.33;101174.03;4958666;29;1058;-45
2024/03/01 00:28:12;;;;;;;;;;;;;;;15.73;48.08;101169.13;4957505;29;951;-47
2024/03/01 00:30:37;;;;;;;;;;;;;;;15.47;48.72;101158.34;4958844;29;1101;-48
2024/03/01 00:33:03;;;;;;;;;;;;;;;15.53;49.07;101157.97;4958836;29;1029;-45
2024/03/01 00:35:29;;;;;;;;;;;;;;;16.96;45.73;101155.94;4958642;29;1133;-48
2024/03/01 00:37:54;;;;;;;;;;;;;;;16.48;46.26;101144.03;4958171;29;1902;-45
2024/03/01 00:40:20;;;;;;;;;;;;;;;15.91;47.98;101151.22;4950319;28;1061;-44
2024/03/01 00:42:45;;;;;;;;;;;;;;;15.58;48.45;101166.47;4958691;29;1093;-43
2024/03/01 00:45:11;;;;;;;;;;;;;;;15.38;48.97;101162.44;4959068;29;1092;-45
2024/03/01 00:47:46;;;;;;;;;;;;;;;16.46;47.00;101143.28;4957951;29;1089;-47
2024/03/01 00:50:11;;;;;;;;;;;;;;;17.10;44.99;101141.72;4945785;29;1102;-46
2024/03/01 00:52:37;;;;;;;;;;;;;;;16.18;47.35;101137.16;4956673;29;905;-46
2024/03/01 00:55:04;;;;;;;;;;;;;;;15.76;48.24;101130.03;4958509;29;1209;-47
2024/03/01 00:57:30;;;;;;;;;;;;;;;15.51;48.95;101162.53;4958011;29;1053;-48
2024/03/01 00:59:56;;;;;;;;;;;;;;;15.32;49.50;101182.19;4958214;29;1979;-45
2024/03/01 01:02:21;;;;;;;;;;;;;;;15.40;49.46;101153.41;4958338;29;1069;-44
2024/03/01 01:04:47;;;;;;;;;;;;;;;16.92;45.70;101129.66;4958284;29;894;-47
2024/03/01 01:07:12;;;;;;;;;;;;;;;17.21;44.56;101119.72;4958352;29;1038;-45
2024/03/01 01:09:38;;;;;;;;;;;;;;;16.25;47.00;101135.78;4957973;29;1065;-44
2024/03/01 01:12:03;;;;;;;;;;;;;;;15.84;48.12;101121.56;4957665;29;1132;-47
2024/03/01 01:14:29;;;;;;;;;;;;;;;15.60;48.36;101122.16;4958167;29;1167;-46
2024/03/01 01:16:54;;;;;;;;;;;;;;;15.32;49.22;101121.22;4955072;29;853;-47
2024/03/01 01:19:20;;;;;;;;;;;;;;;16.61;46.60;101130.81;4957763;29;1969;-48
2024/03/01 01:21:45;;;;;;;;;;;;;;;17.21;44.79;101121.50;4958202;29;1010;-48
2024/03/01 01:24:11;;;;;;;;;;;;;;;16.24;46.79;101110.19;4957647;29;1089;-47
2024/03/01 01:26:36;;;;;;;;;;;;;;;15.92;47.72;101107.78;4957795;29;1128;-47
2024/03/01 01:29:02;;;;;;;;;;;;;;;15.57;48.74;101117.06;4957435;29;1081;-45
2024/03/01 01:31:28;;;;;;;;;;;;;;;15.34;49.26;101105.22;4957710;29;1113;-47
2024/03/01 01:33:54;;;;;;;;;;;;;;;15.85;48.40;101091.41;4957893;29;1078;-42
2024/03/01 01:36:19;;;;;;;;;;;;;;;17.21;44.99;101090.47;4957593;29;1148;-42
2024/03/01 01:38:45;;;;;;;;;;;;;;;16.63;46.03;101085.53;4957951;29;1907;-48
2024/03/01 01:41:11;;;;;;;;;;;;;;;15.96;47.48;101081.91;4953295;29;892;-49
2024/03/01 01:43:42;;;;;;;;;;;;;;;15.64;48.24;101086.56;4957755;29;1196;-46
2024/03/01 01:46:08;;;;;;;;;;;;;;;15.39;48.69;101077.50;4957759;29;1148;-48
2024/03/01 01:48:33;;;;;;;;;;;;;;;15.33;49.26;101071.72;4945198;29;1168;-45
2024/03/01 01:50:59;;;;;;;;;;;;;;;16.43;46.90;101082.44;4957715;29;1057;-42
2024/03/01 01:53:24;;;;;;;;;;;;;;;17.14;44.87;101073.22;4957476;29;1248;-46
2024/03/01 01:55:50;;;;;;;;;;;;;;;16.22;46.95;101080.25;4956901;29;1282;-43
2024/03/01 01:58:15;;;;;;;;;;;;;;;15.74;47.99;101070.03;4936072;29;1911;-42
2024/03/01 02:00:41;;;;;;;;;;;;;;;15.56;48.64;101062.31;4940244;29;1343;-48
2024/03/01 02:03:08;;;;;;;;;;;;;;;16.08;47.49;101065.22;4957605;29;1158;-44
2024/03/01 02:05:34;;;;;;;;;;;;;;;17.27;44.82;101067.06;4940385;29;910;-46
2024/03/01 02:07:59;;;;;;;;;;;;;;;16.35;46.40;101074.97;4945291;29;1035;-47
2024/03/01 02:10:25;;;;;;;;;;;;;;;15.86;47.92;101074.56;4956913;29;1133;-47
2024/03/01 02:12:52;;;;;;;;;;;;;;;15.50;48.84;101066.19;4957677;29;1101;-47
2024/03/01 02:15:17;;;;;;;;;;;;;;;15.36;49.12;101059.13;4957851;29;1136;-45
2024/03/01 02:17:43;;;;;;;;;;;;;;;15.95;47.87;101064.31;4945988;29;987;-47
2024/03/01 02:20:08;;;;;;;;;;;;;;;17.22;44.58;101062.91;4944916;29;1903;-47
2024/03/01 02:22:34;;;;;;;;;;;;;;;16.67;45.76;101062.25;4928264;29;1070;-45
2024/03/01 02:24:59;;;;;;;;;;;;;;;16.05;47.43;101065.41;4931286;29;1216;-47
2024/03/01 02:27:25;;;;;;;;;;;;;;;15.66;48.37;101073.19;4960680;29;1247;-44
2024/03/01 02:29:51;;;;;;;;;;;;;;;15.46;48.47;101061.19;4954962;29;896;-47
2024/03/01 02:32:16;;;;;;;;;;;;;;;15.62;48.90;101063.72;4947504;29;965;-45
2024/03/01 02:34:42;;;;;;;;;;;;;;;17.10;45.11;101063.78;4960762;28;994;-46
2024/03/01 02:37:08;;;;;;;;;;;;;;;16.72;45.60;101066.31;4948029;29;1050;-43
2024/03/01 02:39:33;;;;;;;;;;;;;;;16.00;47.21;101056.91;4960904;29;1979;-46
2024/03/01 02:41:59;;;;;;;;;;;;;;;15.68;48.09;101050.09;4960501;29;1237;-45
2024/03/01 02:44:24;;;;;;;;;;;;;;;15.50;48.40;101054.75;4960640;29;1120;-45
2024/03/01 02:46:50;;;;;;;;;;;;;;;15.34;49.31;101049.56;4960388;29;1038;-44
2024/03/01 02:49:16;;;;;;;;;;;;;;;16.72;46.17;101052.16;4943666;29;1042;-46
2024/03/01 02:51:41;;;;;;;;;;;;;;;16.87;45.29;101055.56;4959864;29;1117;-44
2024/03/01 02:54:07;;;;;;;;;;;;;;;16.03;47.51;101046.94;4959955;29;1143;-47
2024/03/01 02:56:32;;;;;;;;;;;;;;;15.69;48.24;101045.59;4947822;29;1204;-44
2024/03/01 02:58:58;;;;;;;;;;;;;;;15.46;48.72;101054.09;4948569;29;1902;-44
2024/03/01 03:01:24;;;;;;;;;;;;;;;15.39;48.86;101040.38;4959218;29;1153;-47
2024/03/01 03:03:50;;;;;;;;;;;;;;;16.94;45.57;101042.69;4948583;28;1212;-45
2024/03/01 03:06:16;;;;;;;;;;;;;;;16.83;45.35;101035.50;4947327;29;1130;-46
2024/03/01 03:08:41;;;;;;;;;;;;;;;16.08;47.34;101037.84;4960369;29;1287;-46
2024/03/01 03:11:08;;;;;;;;;;;;;;;15.64;48.40;101045.91;4954070;29;1073;-46
2024/03/01 03:13:34;;;;;;;;;;;;;;;15.35;49.15;101044.16;4953610;29;1097;-45
2024/03/01 03:15:59;;;;;;;;;;;;;;;16.20;47.31;101042.31;4947296;29;1148;-46
2024/03/01 03:18:25;;;;;;;;;;;;;;;17.35;44.52;101040.78;4960170;29;1910;-45
2024/03/01 03:20:50;;;;;;;;;;;;;;;16.34;46.41;101032.59;4960119;29;1042;-48
2024/03/01 03:23:16;;;;;;;;;;;;;;;15.87;47.61;101030.31;4959806;29;1152;-42
2024/03/01 03:25:42;;;;;;;;;;;;;;;15.47;48.84;101034.59;4960057;29;1149;-45
2024/03/01 03:28:09;;;;;;;;;;;;;;;15.30;49.03;101028.56;4948257;29;1280;-47
2024/03/01 03:30:34;;;;;;;;;;;;;;;16.00;47.65;101040.97;4959453;29;1062;-44
2024/03/01 03:33:00;;;;;;;;;;;;;;;17.32;44.52;101033.00;4959479;29;1042;-46
2024/03/01 03:35:25;;;;;;;;;;;;;;;16.56;45.99;101028.47;4958375;28;1190;-44
2024/03/01 03:37:51;;;;;;;;;;;;;;;15.97;47.37;101027.88;4960429;29;1253;-47
2024/03/01 03:40:17;;;;;;;;;;;;;;;15.61;48.53;101019.59;4959047;29;1907;-46
2024/03/01 03:42:43;;;;;;;;;;;;;;;15.41;48.94;101017.25;4959266;29;1112;-44
2024/03/01 03:45:09;;;;;;;;;;;;;;;16.37;46.94;101024.41;4953062;29;1042;-43
2024/03/01 03:47:36;;;;;;;;;;;;;;;17.29;44.32;101022.59;4952851;29;1098;-46
2024/03/01 03:50:01;;;;;;;;;;;;;;;16.28;46.66;101023.25;4959065;29;1034;-46
2024/03/01 03:52:28;;;;;;;;;;;;;;;15.83;47.55;101015.53;4955704;29;1315;-46
2024/03/01 03:54:53;;;;;;;;;;;;;;;15.53;48.66;101028.06;4952715;29;1326;-43
2024/03/01 03:57:18;;;;;;;;;;;;;;;15.34;48.86;101025.72;4958105;29;1228;-44
2024/03/01 03:59:45;;;;;;;;;;;;;;;16.87;45.59;101034.31;4946468;29;1998;-43
2024/03/01 04:02:12;;;;;;;;;;;;;;;16.93;45.07;101023.28;4947201;29;1168;-44
2024/03/01 04:04:38;;;;;;;;;;;;;;;16.06;47.36;101032.63;4958104;29;1185;-47
2024/03/01 04:07:03;;;;;;;;;;;;;;;15.79;47.90;101025.50;4959227;29;1104;-44
2024/03/01 04:09:29;;;;;;;;;;;;;;;15.44;48.83;101018.88;4959157;29;1141;-46
2024/03/01 04:11:55;;;;;;;;;;;;;;;15.48;48.97;101016.88;4959153;29;1153;-47
2024/03/01 04:14:21;;;;;;;;;;;;;;;17.00;45.38;101021.84;4958684;29;1045;-46
2024/03/01 04:16:46;;;;;;;;;;;;;;;16.86;45.34;101024.66;4955710;29;1129;-44
2024/03/01 04:19:12;;;;;;;;;;;;;;;16.15;46.66;101031.16;4952199;29;1987;-47
2024/03/01 04:21:37;;;;;;;;;;;;;;;15.76;47.72;101033.66;4954151;29;919;-45
2024/03/01 04:24:08;;;;;;;;;;;;;;;15.46;48.75;101024.09;4958336;29;1104;-45
2024/03/01 04:26:34;;;;;;;;;;;;;;;15.45;48.67;101019.75;4958050;29;1383;-47
2024/03/01 04:29:00;;;;;;;;;;;;;;;16.96;45.38;101023.06;4951488;29;1486;-45
2024/03/01 04:31:26;;;;;;;;;;;;;;;16.84;45.47;101026.56;4958799;29;1371;-47
2024/03/01 04:33:51;;;;;;;;;;;;;;;16.05;47.32;101014.16;4949504;28;1129;-50
2024/03/01 04:36:17;;;;;;;;;;;;;;;15.73;48.11;101007.34;4955015;29;1121;-47
2024/03/01 04:38:42;;;;;;;;;;;;;;;15.46;48.74;101008.19;4955269;29;1915;-44
2024/03/01 04:41:14;;;;;;;;;;;;;;;15.50;48.76;100996.41;4958086;29;975;-44
2024/03/01 04:43:40;;;;;;;;;;;;;;;17.07;45.19;100998.34;4958558;29;1128;-47
2024/03/01 04:46:05;;;;;;;;;;;;;;;16.75;45.53;100999.66;4958138;28;1132;-48
2024/03/01 04:48:31;;;;;;;;;;;;;;;15.97;47.62;101004.88;4957913;29;1117;-47
2024/03/01 04:50:56;;;;;;;;;;;;;;;15.69;48.01;101009.34;4957485;29;903;-46
2024/03/01 04:53:22;;;;;;;;;;;;;;;15.49;48.37;101005.31;4951784;29;1062;-47
2024/03/01 04:55:47;;;;;;;;;;;;;;;15.79;48.09;101015.75;4931126;29;1301;-46
2024/03/01 04:58:13;;;;;;;;;;;;;;;17.21;44.77;101017.81;4949151;29;1986;-46
2024/03/01 05:00:39;;;;;;;;;;;;;;;16.88;45.37;101030.72;4951282;29;1098;-47
2024/03/01 05:03:06;;;;;;;;;;;;;;;16.13;47.17;101030.44;4958013;29;1061;-45
2024/03/01 05:05:32;;;;;;;;;;;;;;;15.75;47.84;101024.84;4957408;29;1158;-46
2024/03/01 05:07:58;;;;;;;;;;;;;;;15.52;48.60;101018.38;4957656;29;2077;-46
2024/03/01 05:10:23;;;;;;;;;;;;;;;16.59;46.56;101017.63;4956284;29;1927;-48
2024/03/01 05:12:49;;;;;;;;;;;;;;;17.55;44.23;101003.91;4952610;29;1910;-46
2024/03/01 05:15:15;;;;;;;;;;;;;;;16.79;45.66;101010.94;4935003;29;2246;-45
2024/03/01 05:17:41;;;;;;;;;;;;;;;15.61;47.80;101006.34;4955554;29;1845;-43
2024/03/01 05:20:10;;;;;;;;;;;;;;;15.26;48.60;101008.50;4950227;29;2112;-46
2024/03/01 05:22:37;;;;;;;;;;;;;;;17.38;45.37;101012.13;4952093;29;1120;-47
2024/03/01 05:25:14;;;;;;;;;;;;;;;15.81;47.75;101007.69;4945757;29;1123;-44
2024/03/01 05:27:49;;;;;;;;;;;;;;;15.23;48.65;101010.50;4957462;29;1049;-48
2024/03/01 05:30:19;;;;;;;;;;;;;;;17.44;45.32;101018.81;4956755;29;906;-42
2024/03/01 05:32:45;;;;;;;;;;;;;;;16.32;47.05;101015.91;4957694;29;1010;-48
2024/03/01 05:35:14;;;;;;;;;;;;;;;15.61;47.70;101015.16;4947224;29;1098;-50
2024/03/01 05:37:40;;;;;;;;;;;;;;;15.29;47.56;101012.75;4939174;29;1003;-47
2024/03/01 05:40:10;;;;;;;;;;;;;;;16.38;47.73;101019.00;4957946;29;1902;-45
2024/03/01 05:42:35;;;;;;;;;;;;;;;16.75;46.53;101014.75;4951568;29;1228;-44
2024/03/01 05:45:01;;;;;;;;;;;;;;;15.55;48.41;101010.22;4946153;29;1193;-43
2024/03/01 05:47:26;;;;;;;;;;;;;;;16.13;48.57;101015.34;4956107;29;1138;-45
2024/03/01 05:49:52;;;;;;;;;;;;;;;16.92;46.13;101016.25;4957312;29;2487;-47
2024/03/01 05:52:17;;;;;;;;;;;;;;;15.81;47.78;101020.97;4957625;29;997;-45
2024/03/01 05:54:43;;;;;;;;;;;;;;;15.43;47.29;101031.28;4954398;29;1162;-45
2024/03/01 05:57:10;;;;;;;;;;;;;;;16.30;48.05;101036.41;4930534;29;1126;-42
2024/03/01 05:59:36;;;;;;;;;;;;;;;16.70;46.56;101035.50;4961085;29;1918;-44
2024/03/01 06:02:01;;;;;;;;;;;;;;;15.75;47.87;101035.47;4951039;29;1260;-48
2024/03/01 06:04:27;;;;;;;;;;;;;;;15.47;47.59;101023.13;4959528;29;1137;-47
2024/03/01 06:06:52;;;;;;;;;;;;;;;15.26;47.03;101031.50;4948434;29;1057;-44
2024/03/01 06:09:18;;;;;;;;;;;;;;;15.18;47.62;101034.63;4953786;29;1097;-42
2024/03/01 06:11:43;;;;;;;;;;;;;;;17.10;46.65;101039.88;4955864;28;1030;-41
2024/03/01 06:14:10;;;;;;;;;;;;;;;16.18;48.03;101056.66;4961453;29;1108;-46
2024/03/01 06:16:36;;;;;;;;;;;;;;;15.45;48.16;101067.47;4960457;29;1153;-48
2024/03/01 06:19:02;;;;;;;;;;;;;;;15.23;47.62;101074.94;4938115;29;1906;-45
2024/03/01 06:21:27;;;;;;;;;;;;;;;17.05;46.80;101073.88;4961383;29;1133;-43
2024/03/01 06:23:53;;;;;;;;;;;;;;;16.25;47.53;101076.50;4961611;29;1145;-43
2024/03/01 06:26:18;;;;;;;;;;;;;;;15.58;48.09;101078.97;4961057;29;1207;-43
2024/03/01 06:28:44;;;;;;;;;;;;;;;15.29;47.79;101074.56;4960601;29;1057;-43
2024/03/01 06:31:10;;;;;;;;;;;;;;;17.35;46.18;101080.66;4956506;29;913;-42
2024/03/01 06:33:35;;;;;;;;;;;;;;;15.97;47.86;101086.25;4960436;29;1221;-48
2024/03/01 06:36:02;;;;;;;;;;;;;;;15.57;47.73;101082.56;4959591;29;1093;-48
2024/03/01 06:38:27;;;;;;;;;;;;;;;15.94;48.69;101074.06;4960593;29;1906;-43
2024/03/01 06:40:53;;;;;;;;;;;;;;;17.82;44.83;101078.19;4960520;29;1220;-46
2024/03/01 06:43:18;;;;;;;;;;;;;;;16.16;47.68;101067.38;4960633;29;1113;-48
2024/03/01 06:45:44;;;;;;;;;;;;;;;15.64;47.69;101053.88;4960134;29;1343;-45
2024/03/01 06:48:10;;;;;;;;;;;;;;;16.28;48.17;101040.00;4961084;29;1066;-43
2024/03/01 06:50:36;;;;;;;;;;;;;;;17.36;45.68;101037.16;4960132;29;1068;-43
2024/03/01 06:53:01;;;;;;;;;;;;;;;16.10;47.50;101025.31;4960361;28;1089;-48
2024/03/01 06:55:27;;;;;;;;;;;;;;;15.56;47.98;101030.50;4953232;29;1245;-43
2024/03/01 06:57:52;;;;;;;;;;;;;;;17.25;46.58;101041.41;4960414;29;1022;-46
2024/03/01 07:00:18;;;;;;;;;;;;;;;16.28;47.42;101029.38;4960317;29;1983;-43
2024/03/01 07:02:44;;;;;;;;;;;;;;;15.74;47.42;101022.28;4959865;29;1157;-43
2024/03/01 07:05:09;;;;;;;;;;;;;;;16.51;48.21;101013.72;4960420;29;1074;-40
2024/03/01 07:07:36;;;;;;;;;;;;;;;16.81;46.81;101016.16;4959492;29;1049;-46
2024/03/01 07:10:02;;;;;;;;;;;;;;;15.77;47.82;101012.34;4960403;28;1094;-46
2024/03/01 07:12:28;;;;;;;;;;;;;;;16.80;47.59;101011.78;4959738;29;1128;-45
2024/03/01 07:14:53;;;;;;;;;;;;;;;18.15;44.10;101011.09;4960386;29;1137;-44
2024/03/01 07:17:19;;;;;;;;;;;;;;;16.43;47.05;101018.69;4959893;29;1043;-44
2024/03/01 07:19:44;;;;;;;;;;;;;;;15.85;47.22;101014.47;4954978;29;1974;-42
2024/03/01 07:22:10;;;;;;;;;;;;;;;15.85;48.10;101006.53;4959459;29;1101;-44
2024/03/01 07:24:35;;;;;;;;;;;;;;;17.83;45.11;101013.34;4959463;29;1351;-47
2024/03/01 07:27:01;;;;;;;;;;;;;;;16.40;47.58;101010.91;4959957;29;1054;-43
2024/03/01 07:29:28;;;;;;;;;;;;;;;15.83;47.43;101018.19;4959500;29;1188;-42
2024/03/01 07:31:54;;;;;;;;;;;;;;;15.63;46.78;101018.53;4959209;29;975;-45
2024/03/01 07:34:19;;;;;;;;;;;;;;;15.83;47.75;101008.41;4959220;29;1291;-46
2024/03/01 07:36:45;;;;;;;;;;;;;;;16.85;46.62;101012.34;4959565;29;1135;-52
2024/03/01 07:39:11;;;;;;;;;;;;;;;15.89;47.61;101029.25;4959449;29;1891;-46
2024/03/01 07:41:37;;;;;;;;;;;;;;;15.47;47.42;101029.28;4959076;29;1081;-47
2024/03/01 07:44:03;;;;;;;;;;;;;;;16.19;47.98;101040.63;4952724;29;1110;-44
2024/03/01 07:46:28;;;;;;;;;;;;;;;17.86;44.94;101044.22;4959023;29;1081;-46
2024/03/01 07:48:53;;;;;;;;;;;;;;;16.24;47.64;101035.00;4959264;29;1355;-47
2024/03/01 07:51:19;;;;;;;;;;;;;;;17.38;46.50;101035.25;4958189;29;1279;-44
2024/03/01 07:53:46;;;;;;;;;;;;;;;17.16;46.26;101044.75;4959312;29;1167;-44
2024/03/01 07:56:11;;;;;;;;;;;;;;;16.19;47.14;101039.78;4946246;29;1010;-45
2024/03/01 07:58:37;;;;;;;;;;;;;;;15.76;47.53;101025.72;4958787;29;1981;-43
2024/03/01 08:01:02;;;;;;;;;;;;;;;17.02;47.16;101032.38;4959063;29;1157;-45
2024/03/01 08:03:28;;;;;;;;;;;;;;;17.25;45.98;101025.47;4959026;29;1207;-45
2024/03/01 08:05:53;;;;;;;;;;;;;;;16.24;47.58;101029.69;4958904;29;987;-48
2024/03/01 08:08:39;;;;;;;;;;;;;;;16.08;48.36;101027.22;4958888;29;879;-49
2024/03/01 08:11:08;;;;;;;;;;;;;;;17.24;45.92;101023.78;4958542;29;1573;-44
2024/03/01 08:13:34;;;;;;;;;;;;;;;16.06;47.42;101026.47;4958137;29;1105;-50
2024/03/01 08:16:00;;;;;;;;;;;;;;;16.50;48.37;101032.38;4959044;29;1104;-49
2024/03/01 08:18:25;;;;;;;;;;;;;;;16.76;47.03;101014.66;4958216;29;1891;-44
2024/03/01 08:20:55;;;;;;;;;;;;;;;16.11;47.34;101024.38;4958616;28;1033;-46
2024/03/01 08:23:20;;;;;;;;;;;;;;;15.83;47.24;101026.16;4959075;29;1275;-45
2024/03/01 08:25:46;;;;;;;;;;;;;;;17.83;45.33;101031.13;4958713;29;1018;-47
2024/03/01 08:28:13;;;;;;;;;;;;;;;16.54;47.21;101033.88;4958688;29;1006;-45
2024/03/01 08:30:43;;;;;;;;;;;;;;;17.07;47.05;101021.41;4952913;29;1173;-47
2024/03/01 08:33:15;;;;;;;;;;;;;;;17.52;45.26;101012.94;4958333;29;1152;-47
2024/03/01 08:35:41;;;;;;;;;;;;;;;16.39;47.09;101012.75;4948579;29;1205;-49
2024/03/01 08:38:26;;;;;;;;;;;;;;;15.95;46.92;101001.47;4955577;29;1910;-50
2024/03/01 08:40:54;;;;;;;;;;;;;;;15.70;46.97;101011.03;4951633;29;1641;-48
2024/03/01 08:43:20;;;;;;;;;;;;;;;15.51;46.94;100998.13;4938830;29;1311;-51
2024/03/01 08:45:45;;;;;;;;;;;;;;;16.73;46.83;101001.56;4958698;29;1003;-51
2024/03/01 08:48:19;;;;;;;;;;;;;;;15.85;47.46;100995.09;4953070;29;1061;-49
2024/03/01 08:50:54;;;;;;;;;;;;;;;15.50;47.50;100989.31;4950659;29;1073;-53
2024/03/01 08:53:38;;;;;;;;;;;;;;;15.42;46.69;100986.31;4957808;29;1180;-50
2024/03/01 08:56:04;;;;;;;;;;;;;;;17.26;46.41;100975.81;4945808;29;839;-51
2024/03/01 08:58:30;;;;;;;;;;;;;;;16.06;47.90;100982.22;4954722;29;1907;-50
2024/03/01 09:00:56;;;;;;;;;;;;;;;15.58;47.78;100977.38;4943880;29;1161;-50
2024/03/01 09:03:24;;;;;;;;;;;;;;;15.41;46.87;100968.72;4948171;29;1138;-46
2024/03/01 09:05:50;;;;;;;;;;;;;;;16.16;47.73;100971.81;4952475;29;1050;-47
2024/03/01 09:08:22;;;;;;;;;;;;;;;15.58;47.79;100966.75;4956672;29;898;-49
2024/03/01 09:10:50;;;;;;;;;;;;;;;15.29;47.27;100963.25;4940761;29;1042;-44
2024/03/01 09:13:16;;;;;;;;;;;;;;;17.05;46.67;100964.88;4957632;29;1125;-49
2024/03/01 09:15:42;;;;;;;;;;;;;;;15.91;47.72;100957.53;4952907;29;1058;-46
2024/03/01 09:18:26;;;;;;;;;;;;;;;15.46;48.02;100952.50;4948779;29;1990;-46
2024/03/01 09:20:51;;;;;;;;;;;;;;;15.25;47.13;100947.63;4956086;29;1128;-47
2024/03/01 09:23:17;;;;;;;;;;;;;;;16.27;48.32;100958.66;4956450;29;1142;-46
2024/03/01 09:25:53;;;;;;;;;;;;;;;16.09;47.77;100949.31;4956115;29;1109;-47
2024/03/01 09:28:20;;;;;;;;;;;;;;;15.43;48.10;100954.38;4930915;29;1035;-46
2024/03/01 09:30:51;;;;;;;;;;;;;;;15.25;47.30;100945.81;4944239;29;1110;-46
2024/03/01 09:33:21;;;;;;;;;;;;;;;17.07;46.31;100947.00;4948288;28;1184;-48
2024/03/01 09:35:50;;;;;;;;;;;;;;;15.80;48.18;100942.31;4959260;29;996;-43
2024/03/01 09:38:15;;;;;;;;;;;;;;;15.37;47.93;100940.69;4961398;29;2272;-47
2024/03/01 09:40:47;;;;;;;;;;;;;;;16.82;47.47;100941.63;4961789;29;1088;-45
2024/03/01 09:43:25;;;;;;;;;;;;;;;15.74;48.49;100937.41;4958599;29;1061;-49
2024/03/01 09:45:54;;;;;;;;;;;;;;;15.29;48.27;100930.59;4949595;29;1038;-49
2024/03/01 09:48:25;;;;;;;;;;;;;;;17.18;46.46;100933.84;4959780;29;1189;-52
2024/03/01 09:51:02;;;;;;;;;;;;;;;16.25;48.00;100928.72;4934409;29;1129;-52
2024/03/01 09:53:43;;;;;;;;;;;;;;;15.66;48.88;100930.81;4956213;29;1190;-49
2024/03/01 09:56:22;;;;;;;;;;;;;;;17.46;45.78;100920.31;4954275;28;1041;-51
2024/03/01 09:59:07;;;;;;;;;;;;;;;15.91;48.55;100917.72;4944384;29;1903;-48
2024/03/01 10:01:39;;;;;;;;;;;;;;;16.20;48.99;100920.22;4960689;29;1014;-50
2024/03/01 10:04:23;;;;;;;;;;;;;;;16.37;47.73;100919.06;4961207;29;1066;-49
2024/03/01 10:06:58;;;;;;;;;;;;;;;15.73;47.83;100906.56;4961054;28;1124;-46
2024/03/01 10:09:42;;;;;;;;;;;;;;;15.86;48.59;100906.56;4959705;29;970;-46
2024/03/01 10:12:14;;;;;;;;;;;;;;;16.16;48.10;100901.00;4961035;29;1038;-48
2024/03/01 10:14:59;;;;;;;;;;;;;;;15.68;48.11;100893.59;4961025;29;1080;-43
2024/03/01 10:17:43;;;;;;;;;;;;;;;15.49;47.86;100891.31;4960485;29;1139;-50
2024/03/01 10:20:13;;;;;;;;;;;;;;;17.55;45.92;100885.03;4955530;29;1914;-48
2024/03/01 10:22:46;;;;;;;;;;;;;;;15.97;47.98;100885.47;4958906;29;1049;-51
2024/03/01 10:25:15;;;;;;;;;;;;;;;15.59;47.52;100886.25;4960829;29;1134;-46
2024/03/01 10:27:51;;;;;;;;;;;;;;;15.72;47.85;100900.38;4960156;29;1074;-45
2024/03/01 10:30:18;;;;;;;;;;;;;;;17.36;46.12;100893.56;4943292;29;1098;-47
2024/03/01 10:32:49;;;;;;;;;;;;;;;15.92;48.41;100898.19;4957664;29;1129;-52
2024/03/01 10:35:18;;;;;;;;;;;;;;;15.58;47.47;100892.50;4942326;29;1300;-50
2024/03/01 10:37:43;;;;;;;;;;;;;;;17.32;46.78;100894.72;4959425;29;1303;-48
2024/03/01 10:40:17;;;;;;;;;;;;;;;16.05;48.21;100884.97;4959499;29;1918;-47
2024/03/01 10:42:51;;;;;;;;;;;;;;;15.65;47.88;100889.34;4943092;29;1223;-50
2024/03/01 10:45:20;;;;;;;;;;;;;;;15.39;47.52;100889.28;4932352;29;1046;-50
2024/03/01 10:47:49;;;;;;;;;;;;;;;15.21;47.27;100885.19;4960375;29;1065;-47
2024/03/01 10:50:21;;;;;;;;;;;;;;;15.09;46.73;100877.06;4958469;29;1069;-50
2024/03/01 10:53:05;;;;;;;;;;;;;;;16.06;47.89;100878.72;4960412;29;1193;-45
2024/03/01 10:55:32;;;;;;;;;;;;;;;15.91;48.12;100868.16;4950293;29;1206;-46
2024/03/01 10:58:09;;;;;;;;;;;;;;;15.30;48.26;100861.56;4955188;29;1106;-48
2024/03/01 11:00:53;;;;;;;;;;;;;;;16.84;47.20;100865.34;4959037;29;1918;-48
2024/03/01 11:03:31;;;;;;;;;;;;;;;15.65;48.40;100854.00;4948943;29;1074;-46
2024/03/01 11:06:00;;;;;;;;;;;;;;;16.28;48.61;100853.34;4959543;29;1113;-48
2024/03/01 11:08:41;;;;;;;;;;;;;;;16.92;46.82;100863.91;4952251;29;1049;-49
2024/03/01 11:11:34;;;;;;;;;;;;;;;15.74;48.42;100861.38;4939765;29;1074;-49
2024/03/01 11:13:59;;;;;;;;;;;;;;;15.47;47.53;100859.59;4951644;29;1224;-48
2024/03/01 11:16:26;;;;;;;;;;;;;;;16.68;47.70;100860.28;4960319;29;1038;-49
2024/03/01 11:18:53;;;;;;;;;;;;;;;15.76;48.13;100851.50;4959414;29;1915;-46
2024/03/01 11:21:20;;;;;;;;;;;;;;;15.26;48.01;100838.88;4958225;29;1167;-50
2024/03/01 11:23:55;;;;;;;;;;;;;;;17.01;47.11;100842.00;4959591;29;1127;-48
2024/03/01 11:26:42;;;;;;;;;;;;;;;16.33;47.81;100839.75;4942052;29;1410;-44
2024/03/01 11:29:10;;;;;;;;;;;;;;;15.70;48.34;100837.81;4959495;29;1003;-48
2024/03/01 11:31:36;;;;;;;;;;;;;;;16.69;48.12;100843.38;4942323;29;1408;-49
2024/03/01 11:34:02;;;;;;;;;;;;;;;16.51;47.96;100848.22;4953572;28;1056;-48
2024/03/01 11:36:30;;;;;;;;;;;;;;;15.78;48.33;100851.41;4959471;29;1129;-49
2024/03/01 11:39:01;;;;;;;;;;;;;;;15.55;48.15;100838.72;4959709;29;1973;-46
2024/03/01 11:41:45;;;;;;;;;;;;;;;15.30;47.80;100843.03;4942103;29;1165;-44
2024/03/01 11:44:32;;;;;;;;;;;;;;;15.16;47.58;100846.56;4956311;29;1133;-45
2024/03/01 11:47:06;;;;;;;;;;;;;;;16.52;47.53;100841.94;4935232;29;1110;-48
2024/03/01 11:49:50;;;;;;;;;;;;;;;15.49;48.28;100830.34;4947013;29;1137;-50
2024/03/01 11:52:16;;;;;;;;;;;;;;;15.29;47.66;100816.63;4959376;29;1053;-48
2024/03/01 11:54:54;;;;;;;;;;;;;;;15.22;46.91;100805.56;4958645;28;1161;-51
2024/03/01 11:57:32;;;;;;;;;;;;;;;16.52;47.90;100794.97;4951770;29;1133;-50
2024/03/01 12:00:00;;;;;;;;;;;;;;;16.85;46.90;100789.97;4946978;29;1966;-46
2024/03/01 12:02:35;;;;;;;;;;;;;;;15.76;48.73;100779.88;4958944;29;1030;-51
2024/03/01 12:05:05;;;;;;;;;;;;;;;16.69;48.13;100786.75;4958878;29;1149;-50
2024/03/01 12:07:36;;;;;;;;;;;;;;;16.00;48.15;100783.59;4958785;29;1053;-50
2024/03/01 12:10:11;;;;;;;;;;;;;;;15.59;48.18;100780.19;4935126;29;931;-52
2024/03/01 12:12:46;;;;;;;;;;;;;;;15.35;47.70;100770.31;4959072;29;1113;-51
2024/03/01 12:15:13;;;;;;;;;;;;;;;15.18;47.35;100775.78;4958696;29;1034;-49
2024/03/01 12:17:43;;;;;;;;;;;;;;;16.64;47.97;100774.66;4958686;29;1037;-50
2024/03/01 12:20:09;;;;;;;;;;;;;;;16.48;47.66;100769.59;4958621;29;1911;-51
2024/03/01 12:22:34;;;;;;;;;;;;;;;15.66;48.54;100757.59;4952599;29;960;-51
2024/03/01 12:25:00;;;;;;;;;;;;;;;15.44;47.87;100753.78;4952515;29;1014;-46
2024/03/01 12:27:36;;;;;;;;;;;;;;;15.53;48.54;100747.81;4956482;29;1175;-50
2024/03/01 12:30:10;;;;;;;;;;;;;;;17.34;46.35;100735.94;4956995;29;1058;-53
2024/03/01 12:32:53;;;;;;;;;;;;;;;15.83;48.52;100743.16;4958810;29;1046;-49
2024/03/01 12:35:19;;;;;;;;;;;;;;;15.58;47.99;100736.06;4958330;29;1084;-47
2024/03/01 12:37:47;;;;;;;;;;;;;;;15.31;47.51;100740.50;4957378;29;1228;-48
2024/03/01 12:40:16;;;;;;;;;;;;;;;16.08;48.58;100741.44;4958056;29;1987;-49
2024/03/01 12:42:54;;;;;;;;;;;;;;;16.46;47.64;100747.63;4958089;29;1188;-46
2024/03/01 12:45:27;;;;;;;;;;;;;;;15.59;48.64;100738.63;4949735;29;1263;-52
2024/03/01 12:47:54;;;;;;;;;;;;;;;15.40;47.80;100723.09;4939143;29;1406;-49
2024/03/01 12:50:23;;;;;;;;;;;;;;;15.27;47.32;100736.34;4941306;29;1279;-48
2024/03/01 12:52:54;;;;;;;;;;;;;;;15.10;47.88;100738.34;4957479;29;1335;-49